Latest Coastal Weather Observations for Lord Howe Island

IDN60701

Issued at 8:21 pm EST Sunday 2 August 2015 (issued every 10 minutes, with the page automatically refreshed every 10 minutes)

About coastal observations | Map of coastal stations | Coastal observations for NSW | Marine services | Other Formats
Station Details ID: 200839 Name: LORD HOWE ISLAND AERO Lat: -31.54 Lon: 159.08 Height: 5.0 m
Data from the previous 72 hours. | See also: Recent months at Lord Howe Island
Date/Time
EST
Temp

°C
Wind Pressure Rain
since 9am
mm
Weather Cloud Vis
km
Sea
Height
m
Swell
Dir
 
Speed
knots
Gust
knots
hPa Trend Height
m
Period
s
Dir
02/08:00pm 19.3 NNW 5 8 1021.6 - 0.0 - Partly cloudy 10 - - - -
02/07:30pm 19.4 NNW 7 15 1021.6 - 0.0 - Partly cloudy 10 - - - -
02/07:00pm 19.2 NNW 6 11 1021.4 - 0.0 - Partly cloudy 10 - - - -
02/06:30pm 19.3 WNW 10 14 1021.5 - 0.0 - Partly cloudy 10 - - - -
02/06:00pm 19.2 NNW 6 12 1021.3 - 0.0 - Partly cloudy 10 - - - -
02/05:30pm 19.3 NW 8 13 1020.9 - 0.0 - Mostly clear 10 - - - -
02/05:00pm 19.2 NNW 7 14 1020.5 - 0.0 - Partly cloudy 10 - - - -
02/04:30pm 19.3 NNW 6 12 1020.6 - 0.0 - Partly cloudy 10 - - - -
02/04:00pm 19.6 NW 8 13 1020.8 - 0.0 - Partly cloudy 10 - - - -
02/03:30pm 20.0 NNW 7 9 1020.4 - 0.0 - Partly cloudy 10 - - - -
02/03:00pm 20.4 NNW 9 16 1020.3 - 0.0 - Partly cloudy 10 - - - -
02/02:30pm 19.9 NNW 9 17 1020.3 F 0.0 Fine Mostly cloudy 35 - - - -
02/02:00pm 20.4 NNW 7 12 1020.6 - 0.0 - Mostly clear 10 - - - -
02/01:30pm 20.5 N 7 13 1020.8 - 0.0 - Mostly clear 10 - - - -
02/01:00pm 20.6 NW 8 11 1020.9 - 0.0 - Partly cloudy 10 - - - -
02/12:30pm 20.1 N 10 15 1021.3 - 0.0 - Mostly cloudy 10 - - - -
02/12:00pm 20.5 NW 7 14 1021.8 - 0.0 - Mostly cloudy 10 - - - -
02/11:30am 20.7 NW 8 17 1022.4 R 0.0 Fine Mostly cloudy 35 - - - -
02/11:00am 20.4 NW 9 17 1022.9 - 0.0 - Mostly clear 10 - - - -
02/10:30am 20.5 WNW 9 17 1022.9 - 0.0 - Mostly clear 10 - - - -
02/10:00am 20.5 NW 8 14 1023.3 - 0.0 - Mostly clear 10 - - - -
02/09:30am 20.5 NW 6 12 1023.4 - 0.0 - Mostly clear 10 - - - -
02/09:00am 19.9 NW 7 12 1023.4 - 0.0 - Mostly clear 10 - - - -
02/08:30am 19.5 WNW 7 12 1023.3 R 0.0 Fine Mostly cloudy 35 - - - -
02/08:00am 19.8 WNW 7 11 1023.2 - 0.0 - Partly cloudy 10 - - - -
02/07:30am 19.2 NW 7 13 1023.0 - 0.0 - Mostly clear 10 - - - -
02/07:00am 19.1 NW 6 13 1022.9 - 0.0 - Mostly clear 10 - - - -
02/06:30am 18.7 NW 7 10 1022.5 - 0.0 - Mostly cloudy 10 - - - -
02/06:00am 18.5 WNW 7 14 1022.4 - 0.0 - Mostly cloudy 10 - - - -
02/05:30am 18.4 NW 5 8 1022.2 F 0.0 Fine Partly cloudy 35 - - - -
02/05:00am 18.4 WNW 5 11 1021.8 - 0.0 - Partly cloudy 10 - - - -
02/04:30am 18.3 NW 5 9 1022.0 - 0.0 - Partly cloudy 10 - - - -
02/04:00am 18.2 NNW 7 12 1022.1 - 0.0 - - 10 - - - -
02/03:30am 18.4 NW 7 12 1022.2 - 0.0 - Partly cloudy 10 - - - -
02/03:00am 18.2 NW 7 11 1022.5 - 0.0 - - 10 - - - -
02/02:30am 17.9 NW 5 10 1022.6 - 0.0 - Mostly clear 10 - - - -
02/02:00am 17.9 NW 6 9 1023.0 - 0.0 - Partly cloudy 10 - - - -
02/01:30am 17.5 NNW 5 8 1023.2 - 0.0 - Partly cloudy 10 - - - -
02/01:00am 17.5 NNW 4 6 1023.4 - 0.0 - - 10 - - - -
02/12:30am 17.3 NNW 4 7 1023.5 - 0.0 - - 10 - - - -
02/12:00am 16.7 N 4 6 1023.5 - 0.0 - - 10 - - - -
 
Date/Time
EST
Temp

°C
Wind Pressure Rain
since 9am
mm
Weather Cloud Vis
km
Sea
Height
m
Swell
Dir
 
Speed
knots
Gust
knots
hPa Trend Height
m
Period
s
Dir
01/11:30pm 17.0 N 5 7 1023.7 - 0.0 - - 10 - - - -
01/11:00pm 15.8 NNW 2 5 1023.8 - 0.0 - - 10 - - - -
01/10:30pm 16.2 NNW 3 4 1023.9 - 0.0 - - 10 - - - -
01/10:00pm 16.4 NNW 4 7 1024.0 - 0.0 - - 10 - - - -
01/09:30pm 15.9 NNW 4 7 1024.1 - 0.0 - - 10 - - - -
01/09:00pm 14.5 CALM 0 0 1023.9 - 0.0 - - 10 - - - -
01/08:30pm 13.9 CALM 0 0 1023.8 - 0.0 - - 10 - - - -
01/08:00pm 14.6 CALM 0 2 1023.7 - 0.0 - - 10 - - - -
01/07:30pm 15.3 N 2 4 1023.4 - 0.0 - - 10 - - - -
01/07:00pm 15.7 WNW 3 5 1023.0 - 0.0 - - 10 - - - -
01/06:30pm 14.8 CALM 0 1 1022.5 - 0.0 - - 10 - - - -
01/06:00pm 15.3 NNW 1 4 1022.1 - 0.0 - - 10 - - - -
01/05:30pm 15.7 NW 2 4 1021.9 - 0.0 - - 10 - - - -
01/05:00pm 16.0 NNW 3 5 1021.6 - 0.0 - - 10 - - - -
01/04:30pm 17.6 W 6 9 1021.4 - 0.0 - - 10 - - - -
01/04:00pm 19.1 WNW 5 7 1021.2 - 0.0 - - 10 - - - -
01/03:30pm 19.4 W 9 12 1021.4 - 0.0 - Partly cloudy 10 - - - -
01/03:00pm 19.5 W 11 14 1021.4 - 0.0 - Partly cloudy 10 - - - -
01/02:30pm 19.6 W 11 13 1021.5 F 0.0 Fine Partly cloudy 25 - - - -
01/02:00pm 20.1 W 9 12 1021.6 - 0.0 - - 10 - - - -
01/01:30pm 19.2 W 7 10 1021.4 - 0.0 - Partly cloudy 10 - - - -
01/01:00pm 20.3 WNW 6 10 1021.6 - 0.0 - Partly cloudy 10 - - - -
01/12:30pm 20.0 N 5 9 1021.7 - 0.0 - Partly cloudy 10 - - - -
01/12:00pm 20.1 N 6 8 1022.0 - 0.0 - Partly cloudy 10 - - - -
01/11:30am 20.0 W 5 7 1022.5 - 0.0 - Cloudy 10 - - - -
01/11:00am 19.8 WSW 5 7 1023.0 - 0.0 - Partly cloudy 10 - - - -
01/10:30am 20.1 NE 5 6 1023.4 - 0.0 - Partly cloudy 10 - - - -
01/10:00am 19.8 WNW 2 5 1023.5 - 0.0 - - 10 - - - -
01/09:30am 19.2 WSW 4 5 1023.6 - 0.0 - - 10 - - - -
01/09:00am 18.2 WSW 3 4 1023.6 - 0.0 - - 10 - - - -
01/08:30am 17.5 CALM 0 0 1023.6 R 3.2 Fine Mostly clear 30 - - - -
01/08:00am 16.5 CALM 0 0 1023.4 - 3.2 - - 10 - - - -
01/07:30am 15.2 CALM 0 0 1023.0 - 3.2 - - 10 - - - -
01/07:00am 13.0 CALM 0 0 1022.6 - 3.2 - - 10 - - - -
01/06:30am 11.2 S 1 3 1022.4 - 3.2 - - 10 - - - -
01/06:00am 11.0 CALM 0 0 1022.4 - 3.2 - - 10 - - - -
01/05:45am 10.8 CALM 0 0 1022.1 - 3.2 - - 10 - - - -
01/05:35am 10.7 CALM 0 0 1022.1 - 3.2 - - 10 - - - -
01/05:30am 10.8 CALM 0 0 1021.9 F 3.2 Fine Mostly clear 25 - - - -
01/05:15am 11.2 CALM 0 0 1021.6 - 3.2 - - 2 - - - -
01/05:09am 11.0 CALM 0 0 1021.5 - 3.2 - - 1 - - - -
01/05:07am 11.1 CALM 0 0 1021.4 - 3.2 - - 0.9 - - - -
01/05:00am 11.4 CALM 0 0 1021.3 - 3.2 - - 1 - - - -
01/04:49am 11.4 CALM 0 0 1021.3 - 3.2 - - 5 - - - -
01/04:30am 11.8 CALM 0 0 1021.1 - 3.2 - - 10 - - - -
01/04:00am 13.4 SSW 3 4 1021.3 - 3.2 - Partly cloudy 10 - - - -
01/03:30am 16.1 S 5 9 1021.3 - 3.2 - Partly cloudy 10 - - - -
01/03:00am 12.9 CALM 0 0 1021.1 - 3.2 - Partly cloudy 10 - - - -
01/02:30am 12.9 CALM 0 0 1021.3 - 3.2 - Mostly cloudy 10 - - - -
01/02:23am 12.8 CALM 0 0 1021.4 - 3.2 - Partly cloudy 10 - - - -
01/02:18am 12.9 CALM 0 0 1021.6 - 3.2 - Partly cloudy 10 - - - -
01/02:00am 12.3 CALM 0 0 1021.6 - 3.2 - Partly cloudy 2 - - - -
01/01:57am 12.4 CALM 0 0 1021.6 - 3.2 - Partly cloudy 5 - - - -
01/01:44am 12.4 CALM 0 0 1021.7 - 3.2 - Partly cloudy 10 - - - -
01/01:30am 11.9 SW 1 3 1021.8 - 3.2 - - 3 - - - -
01/01:19am 11.9 CALM 0 0 1021.8 - 3.2 - - 0.9 - - - -
01/01:17am 11.8 CALM 0 0 1021.8 - 3.2 - - 1 - - - -
01/01:00am 12.4 CALM 0 0 1021.8 - 3.2 - - 6 - - - -
01/12:42am 13.3 CALM 0 0 1021.9 - 3.2 - Partly cloudy 5 - - - -
01/12:33am 12.9 CALM 0 0 1021.9 - 3.2 - Partly cloudy 5 - - - -
01/12:30am 12.9 CALM 0 1 1021.9 - 3.2 - Partly cloudy 10 - - - -
01/12:08am 12.7 CALM 0 0 1022.0 - 3.2 - Partly cloudy 10 - - - -
01/12:00am 12.8 N 1 4 1022.0 - 3.2 - Partly cloudy 8 - - - -
 
Date/Time
EST
Temp

°C
Wind Pressure Rain
since 9am
mm
Weather Cloud Vis
km
Sea
Height
m
Swell
Dir
 
Speed
knots
Gust
knots
hPa Trend Height
m
Period
s
Dir
31/11:30pm 12.1 CALM 0 0 1022.0 - 3.2 - - 0.8 - - - -
31/11:00pm 11.8 CALM 0 0 1022.1 - 3.2 - - 0.5 - - - -
31/10:30pm 11.9 CALM 0 0 1022.3 - 3.2 - - 1 - - - -
31/10:02pm 12.0 CALM 0 0 1022.1 - 3.2 - - 0.7 - - - -
31/10:00pm 12.0 CALM 0 0 1022.1 - 3.2 - - 2 - - - -
31/09:30pm 12.2 CALM 0 0 1022.1 - 3.2 - - 3 - - - -
31/09:27pm 12.4 CALM 0 0 1022.2 - 3.2 - - 6 - - - -
31/09:16pm 12.6 CALM 0 0 1022.1 - 3.0 - - 10 - - - -
31/09:00pm 12.4 CALM 0 0 1022.0 - 3.0 - - 2 - - - -
31/08:55pm 12.4 CALM 0 0 1021.9 - 3.0 - - 6 - - - -
31/08:30pm 13.3 SSW 2 5 1021.7 - 3.0 - - 10 - - - -
31/08:00pm 13.3 SSW 3 5 1021.5 - 3.0 - - 10 - - - -
31/07:30pm 13.4 SSW 4 5 1021.2 - 3.0 - - 10 - - - -
31/07:00pm 14.2 CALM 0 0 1021.1 - 3.0 - Partly cloudy 10 - - - -
31/06:30pm 14.4 CALM 0 1 1020.7 - 3.0 - Partly cloudy 10 - - - -
31/06:00pm 14.8 W 4 6 1020.7 - 3.0 - Partly cloudy 10 - - - -
31/05:30pm 15.4 W 10 14 1020.9 - 2.6 - Cloudy 10 - - - -
31/05:28pm 15.3 W 10 14 1020.9 - 2.6 - Partly cloudy 10 - - - -
31/05:03pm 15.6 W 18 21 1020.7 - 2.4 - Partly cloudy 6 - - - -
31/05:00pm 15.8 WSW 18 23 1020.7 - 2.2 - Partly cloudy 7 - - - -
31/04:30pm 16.3 WSW 20 25 1020.4 - 1.8 - Partly cloudy 10 - - - -
31/04:21pm 16.4 W 21 25 1020.2 - 1.8 - Partly cloudy 10 - - - -
31/04:00pm 16.3 W 19 26 1020.1 - 1.4 - Partly cloudy 4 - - - -
31/03:55pm 16.1 W 16 23 1020.2 - 1.2 - Partly cloudy 5 - - - -
31/03:52pm 16.4 W 15 23 1020.3 - 0.4 - Partly cloudy 10 - - - -
31/03:30pm 18.4 NW 6 12 1020.1 - 0.0 - Partly cloudy 10 - - - -
31/03:00pm 18.4 NW 7 13 1020.1 - 0.0 - Partly cloudy 10 - - - -
31/02:30pm 18.3 NW 7 12 1020.4 F 0.0 Fine Mostly cloudy 20 - - - -
31/02:00pm 20.0 NW 8 14 1020.5 - 0.0 - Partly cloudy 10 - - - -
31/01:30pm 19.3 NW 8 13 1020.6 - 0.0 - Partly cloudy 10 - - - -
31/01:00pm 18.6 NW 8 14 1020.7 - 0.0 - Partly cloudy 10 - - - -
31/12:30pm 19.5 NW 9 16 1021.0 - 0.0 - Partly cloudy 10 - - - -
31/12:00pm 19.4 NNW 7 12 1021.4 - 0.0 - Partly cloudy 10 - - - -
31/11:30am 19.8 NW 6 13 1021.8 - 0.0 - Mostly cloudy 10 - - - -
31/11:00am 19.5 NNW 6 11 1022.4 - 0.0 - Partly cloudy 10 - - - -
31/10:30am 19.4 NNW 8 14 1022.8 - 0.0 - Partly cloudy 10 - - - -
31/10:00am 19.1 N 7 13 1022.9 - 0.0 - - 10 - - - -
31/09:30am 18.9 NW 6 12 1023.3 - 0.0 - Partly cloudy 10 - - - -
31/09:00am 18.7 NW 7 14 1023.3 - 0.0 - Partly cloudy 10 - - - -
31/08:30am 18.3 NW 7 12 1023.4 F 0.0 Fine Partly cloudy 25 - - - -
31/08:00am 17.5 NW 7 12 1023.2 - 0.0 - - 10 - - - -
31/07:30am 17.4 NNW 6 11 1023.0 - 0.0 - - 10 - - - -
31/07:00am 16.5 N 5 8 1022.9 - 0.0 - Partly cloudy 10 - - - -
31/06:30am 16.2 NNW 3 6 1022.9 - 0.0 - Partly cloudy 10 - - - -
31/06:00am 16.3 N 5 9 1022.9 - 0.0 - Partly cloudy 10 - - - -
31/05:30am 15.7 N 5 8 1022.7 F 0.0 Fine Mostly clear 20 - - - -
31/05:00am 15.9 N 6 9 1022.4 - 0.0 - Partly cloudy 10 - - - -
31/04:30am 15.4 N 5 9 1022.6 - 0.0 - - 10 - - - -
31/04:00am 15.3 N 5 8 1022.6 - 0.0 - - 10 - - - -
31/03:30am 15.5 N 5 7 1022.9 - 0.0 - - 10 - - - -
31/03:00am 15.7 N 6 8 1023.3 - 0.0 - - 10 - - - -
31/02:30am 15.4 N 5 9 1023.5 - 0.0 - Mostly clear 10 - - - -
31/02:00am 15.8 N 6 9 1024.1 - 0.0 - Partly cloudy 10 - - - -
31/01:30am 16.4 N 6 12 1024.4 - 0.0 - Partly cloudy 10 - - - -
31/01:00am 16.2 N 6 11 1024.6 - 0.0 - Partly cloudy 10 - - - -
31/12:30am 16.2 N 7 12 1024.8 - 0.0 - Partly cloudy 10 - - - -
31/12:00am 16.1 NNE 9 16 1024.9 - 0.0 - Partly cloudy 10 - - - -
 
Date/Time
EST
Temp

°C
Wind Pressure Rain
since 9am
mm
Weather Cloud Vis
km
Sea
Height
m
Swell
Dir
 
Speed
knots
Gust
knots
hPa Trend Height
m
Period
s
Dir
30/11:30pm 16.0 NNE 9 18 1025.4 - 0.0 - Partly cloudy 10 - - - -
30/11:00pm 16.0 NNE 10 13 1025.2 - 0.0 - Partly cloudy 10 - - - -
30/10:30pm 15.8 NE 12 15 1025.2 - 0.0 - Partly cloudy 10 - - - -
30/10:00pm 15.9 NE 10 13 1025.4 - 0.0 - Partly cloudy 10 - - - -
30/09:30pm 15.8 NNE 8 11 1025.6 - 0.0 - - 10 - - - -
30/09:00pm 15.9 NNE 7 11 1026.1 - 0.0 - - 10 - - - -
30/08:30pm 15.9 N 7 10 1026.2 - 0.0 - Mostly clear 10 - - - -
30/08:00pm 15.9 NNE 7 12 1026.2 - 0.0 - - 10 - - - -

Other Formats:

Comma delimited format used in spreadsheet applications
http://www.bom.gov.au/fwo/IDN60701/IDN60701.94995.axf

JavaScript Object Notation format (JSON) in row-major order
http://www.bom.gov.au/fwo/IDN60701/IDN60701.94995.json